sensor_id;sensor_type;location;lat;lon;timestamp;temperature;humidity
10143;DHT22;5112;54.088;13.446;2023-08-07T00:03:44;13.40;99.90
10143;DHT22;5112;54.088;13.446;2023-08-07T00:13:47;13.40;99.90
10143;DHT22;5112;54.088;13.446;2023-08-07T00:23:48;13.40;99.90
10143;DHT22;5112;54.088;13.446;2023-08-07T00:33:52;13.40;99.90
10143;DHT22;5112;54.088;13.446;2023-08-07T00:43:55;13.30;99.90
10143;DHT22;5112;54.088;13.446;2023-08-07T00:53:58;13.30;99.90
10143;DHT22;5112;54.088;13.446;2023-08-07T01:04:02;13.40;99.90
10143;DHT22;5112;54.088;13.446;2023-08-07T01:14:10;13.60;99.90
10143;DHT22;5112;54.088;13.446;2023-08-07T01:24:16;13.50;99.90
10143;DHT22;5112;54.088;13.446;2023-08-07T01:34:21;13.50;99.90
10143;DHT22;5112;54.088;13.446;2023-08-07T01:44:25;13.60;99.90
10143;DHT22;5112;54.088;13.446;2023-08-07T01:54:27;13.70;99.90
10143;DHT22;5112;54.088;13.446;2023-08-07T02:04:30;13.80;99.90
10143;DHT22;5112;54.088;13.446;2023-08-07T02:14:32;13.90;99.90
10143;DHT22;5112;54.088;13.446;2023-08-07T02:24:35;13.90;99.90
10143;DHT22;5112;54.088;13.446;2023-08-07T02:34:37;13.90;99.90
10143;DHT22;5112;54.088;13.446;2023-08-07T02:44:40;13.90;99.90
10143;DHT22;5112;54.088;13.446;2023-08-07T02:54:42;13.80;99.90
10143;DHT22;5112;54.088;13.446;2023-08-07T03:04:45;13.80;99.90
10143;DHT22;5112;54.088;13.446;2023-08-07T03:14:47;13.90;99.90
10143;DHT22;5112;54.088;13.446;2023-08-07T03:24:50;13.90;99.90
10143;DHT22;5112;54.088;13.446;2023-08-07T03:34:51;13.80;99.90
10143;DHT22;5112;54.088;13.446;2023-08-07T03:44:54;13.70;99.90
10143;DHT22;5112;54.088;13.446;2023-08-07T03:54:56;13.70;99.90
10143;DHT22;5112;54.088;13.446;2023-08-07T04:04:59;13.70;99.90
10143;DHT22;5112;54.088;13.446;2023-08-07T04:15:00;13.70;99.90
10143;DHT22;5112;54.088;13.446;2023-08-07T04:25:04;13.80;99.90
10143;DHT22;5112;54.088;13.446;2023-08-07T04:35:07;13.90;99.90
10143;DHT22;5112;54.088;13.446;2023-08-07T04:45:11;14.00;99.90
10143;DHT22;5112;54.088;13.446;2023-08-07T04:55:12;14.10;99.90
10143;DHT22;5112;54.088;13.446;2023-08-07T05:05:15;14.20;99.90
10143;DHT22;5112;54.088;13.446;2023-08-07T05:15:17;14.40;99.90
10143;DHT22;5112;54.088;13.446;2023-08-07T05:25:20;14.40;99.90
10143;DHT22;5112;54.088;13.446;2023-08-07T05:35:22;14.40;99.90
10143;DHT22;5112;54.088;13.446;2023-08-07T05:45:25;14.50;99.90
10143;DHT22;5112;54.088;13.446;2023-08-07T05:55:26;14.50;99.90
10143;DHT22;5112;54.088;13.446;2023-08-07T06:05:29;14.40;99.90
10143;DHT22;5112;54.088;13.446;2023-08-07T06:15:32;14.40;99.90
10143;DHT22;5112;54.088;13.446;2023-08-07T06:25:35;14.40;99.90
10143;DHT22;5112;54.088;13.446;2023-08-07T06:35:37;14.50;99.90
10143;DHT22;5112;54.088;13.446;2023-08-07T06:45:41;14.50;99.90
10143;DHT22;5112;54.088;13.446;2023-08-07T06:55:43;14.50;99.90
10143;DHT22;5112;54.088;13.446;2023-08-07T07:05:48;14.50;99.90
10143;DHT22;5112;54.088;13.446;2023-08-07T07:15:53;14.50;99.90
10143;DHT22;5112;54.088;13.446;2023-08-07T07:25:56;14.90;99.90
10143;DHT22;5112;54.088;13.446;2023-08-07T07:35:58;14.80;99.90
10143;DHT22;5112;54.088;13.446;2023-08-07T07:46:03;14.80;99.90
10143;DHT22;5112;54.088;13.446;2023-08-07T07:56:05;14.90;99.90
10143;DHT22;5112;54.088;13.446;2023-08-07T08:06:08;15.10;99.90
10143;DHT22;5112;54.088;13.446;2023-08-07T08:16:10;15.20;99.90
10143;DHT22;5112;54.088;13.446;2023-08-07T08:26:12;15.30;99.90
10143;DHT22;5112;54.088;13.446;2023-08-07T08:36:14;15.20;99.90
10143;DHT22;5112;54.088;13.446;2023-08-07T08:46:19;15.10;99.90
10143;DHT22;5112;54.088;13.446;2023-08-07T08:56:21;15.10;99.90
10143;DHT22;5112;54.088;13.446;2023-08-07T09:06:25;15.10;99.90
10143;DHT22;5112;54.088;13.446;2023-08-07T09:16:30;15.00;99.90
10143;DHT22;5112;54.088;13.446;2023-08-07T09:26:33;15.00;99.90
10143;DHT22;5112;54.088;13.446;2023-08-07T09:36:35;15.00;99.90
10143;DHT22;5112;54.088;13.446;2023-08-07T09:46:44;14.90;99.90
10143;DHT22;5112;54.088;13.446;2023-08-07T09:56:47;14.90;99.90
10143;DHT22;5112;54.088;13.446;2023-08-07T10:06:51;14.80;99.90
10143;DHT22;5112;54.088;13.446;2023-08-07T10:16:52;14.80;99.90
10143;DHT22;5112;54.088;13.446;2023-08-07T10:26:57;14.70;99.90
10143;DHT22;5112;54.088;13.446;2023-08-07T10:36:59;14.70;99.90
10143;DHT22;5112;54.088;13.446;2023-08-07T10:47:02;14.70;99.90
10143;DHT22;5112;54.088;13.446;2023-08-07T10:57:10;14.70;99.90
10143;DHT22;5112;54.088;13.446;2023-08-07T11:07:25;14.60;99.90
10143;DHT22;5112;54.088;13.446;2023-08-07T11:17:27;14.60;99.90
10143;DHT22;5112;54.088;13.446;2023-08-07T11:27:31;14.60;99.90
10143;DHT22;5112;54.088;13.446;2023-08-07T11:37:33;14.80;99.90
10143;DHT22;5112;54.088;13.446;2023-08-07T11:47:36;15.10;99.90
10143;DHT22;5112;54.088;13.446;2023-08-07T11:57:38;15.20;99.90
10143;DHT22;5112;54.088;13.446;2023-08-07T12:07:44;15.10;99.90
10143;DHT22;5112;54.088;13.446;2023-08-07T12:17:46;15.30;99.90
10143;DHT22;5112;54.088;13.446;2023-08-07T12:27:49;15.50;99.90
10143;DHT22;5112;54.088;13.446;2023-08-07T12:37:51;15.80;99.90
10143;DHT22;5112;54.088;13.446;2023-08-07T12:47:54;16.30;99.90
10143;DHT22;5112;54.088;13.446;2023-08-07T12:57:56;16.80;99.90
10143;DHT22;5112;54.088;13.446;2023-08-07T13:07:59;16.70;99.90
10143;DHT22;5112;54.088;13.446;2023-08-07T13:18:00;16.60;99.90
10143;DHT22;5112;54.088;13.446;2023-08-07T13:28:05;16.90;99.90
10143;DHT22;5112;54.088;13.446;2023-08-07T13:38:07;16.90;99.90
10143;DHT22;5112;54.088;13.446;2023-08-07T13:48:12;17.20;99.90
10143;DHT22;5112;54.088;13.446;2023-08-07T13:58:14;17.20;99.90
10143;DHT22;5112;54.088;13.446;2023-08-07T14:08:18;17.00;99.90
10143;DHT22;5112;54.088;13.446;2023-08-07T14:18:19;17.00;99.90
10143;DHT22;5112;54.088;13.446;2023-08-07T14:28:22;17.10;99.90
10143;DHT22;5112;54.088;13.446;2023-08-07T14:38:24;17.10;99.90
10143;DHT22;5112;54.088;13.446;2023-08-07T14:48:27;17.40;99.90
10143;DHT22;5112;54.088;13.446;2023-08-07T14:58:29;17.60;99.90
10143;DHT22;5112;54.088;13.446;2023-08-07T15:08:34;17.70;99.90
10143;DHT22;5112;54.088;13.446;2023-08-07T15:18:36;17.50;99.90
10143;DHT22;5112;54.088;13.446;2023-08-07T15:28:39;17.50;99.90
10143;DHT22;5112;54.088;13.446;2023-08-07T15:38:41;17.40;99.90
10143;DHT22;5112;54.088;13.446;2023-08-07T15:48:44;16.90;99.90
10143;DHT22;5112;54.088;13.446;2023-08-07T15:58:45;16.10;99.90
10143;DHT22;5112;54.088;13.446;2023-08-07T16:08:48;16.00;99.90
10143;DHT22;5112;54.088;13.446;2023-08-07T16:18:50;15.80;99.90
10143;DHT22;5112;54.088;13.446;2023-08-07T16:28:53;15.70;99.90
10143;DHT22;5112;54.088;13.446;2023-08-07T16:38:55;15.70;99.90
10143;DHT22;5112;54.088;13.446;2023-08-07T16:48:58;15.40;99.90
10143;DHT22;5112;54.088;13.446;2023-08-07T16:58:59;15.30;99.90
10143;DHT22;5112;54.088;13.446;2023-08-07T17:09:03;15.40;99.90
10143;DHT22;5112;54.088;13.446;2023-08-07T17:19:04;15.50;99.90
10143;DHT22;5112;54.088;13.446;2023-08-07T17:29:07;15.50;99.90
10143;DHT22;5112;54.088;13.446;2023-08-07T17:39:09;15.50;99.90
10143;DHT22;5112;54.088;13.446;2023-08-07T17:49:12;15.20;99.90
10143;DHT22;5112;54.088;13.446;2023-08-07T17:59:14;15.10;99.90
10143;DHT22;5112;54.088;13.446;2023-08-07T18:09:17;15.20;99.90
10143;DHT22;5112;54.088;13.446;2023-08-07T18:19:18;15.30;99.90
10143;DHT22;5112;54.088;13.446;2023-08-07T18:29:21;15.40;99.90
10143;DHT22;5112;54.088;13.446;2023-08-07T18:39:23;15.50;99.90
10143;DHT22;5112;54.088;13.446;2023-08-07T18:49:26;15.50;99.90
10143;DHT22;5112;54.088;13.446;2023-08-07T18:59:28;15.30;99.90
10143;DHT22;5112;54.088;13.446;2023-08-07T19:09:31;15.20;99.90
10143;DHT22;5112;54.088;13.446;2023-08-07T19:19:32;15.10;99.90
10143;DHT22;5112;54.088;13.446;2023-08-07T19:29:35;15.10;99.90
10143;DHT22;5112;54.088;13.446;2023-08-07T19:39:37;15.10;99.90
10143;DHT22;5112;54.088;13.446;2023-08-07T19:49:40;15.00;99.90
10143;DHT22;5112;54.088;13.446;2023-08-07T19:59:42;14.80;99.90
10143;DHT22;5112;54.088;13.446;2023-08-07T20:09:45;14.80;99.90
10143;DHT22;5112;54.088;13.446;2023-08-07T20:19:47;14.80;99.90
10143;DHT22;5112;54.088;13.446;2023-08-07T20:29:50;14.70;99.90
10143;DHT22;5112;54.088;13.446;2023-08-07T20:39:53;14.60;99.90
10143;DHT22;5112;54.088;13.446;2023-08-07T20:49:56;14.60;99.90
10143;DHT22;5112;54.088;13.446;2023-08-07T20:59:58;14.40;99.90
10143;DHT22;5112;54.088;13.446;2023-08-07T21:10:01;14.30;99.90
10143;DHT22;5112;54.088;13.446;2023-08-07T21:20:03;14.20;99.90
10143;DHT22;5112;54.088;13.446;2023-08-07T21:30:07;14.20;99.90
10143;DHT22;5112;54.088;13.446;2023-08-07T21:40:10;14.30;99.90
10143;DHT22;5112;54.088;13.446;2023-08-07T21:50:13;14.40;99.90
10143;DHT22;5112;54.088;13.446;2023-08-07T22:00:15;14.50;99.90
10143;DHT22;5112;54.088;13.446;2023-08-07T22:10:18;14.30;99.90
10143;DHT22;5112;54.088;13.446;2023-08-07T22:20:20;14.20;99.90
10143;DHT22;5112;54.088;13.446;2023-08-07T22:30:23;14.10;99.90
10143;DHT22;5112;54.088;13.446;2023-08-07T22:40:25;14.00;99.90
10143;DHT22;5112;54.088;13.446;2023-08-07T22:50:28;14.00;99.90
10143;DHT22;5112;54.088;13.446;2023-08-07T23:00:30;14.20;99.90
10143;DHT22;5112;54.088;13.446;2023-08-07T23:10:35;14.00;99.90
10143;DHT22;5112;54.088;13.446;2023-08-07T23:20:36;14.00;99.90
10143;DHT22;5112;54.088;13.446;2023-08-07T23:30:39;14.00;99.90
10143;DHT22;5112;54.088;13.446;2023-08-07T23:40:41;14.00;99.90
10143;DHT22;5112;54.088;13.446;2023-08-07T23:50:45;13.80;99.90
